Time;durP1;ratioP1;P1;durP2;ratioP2;P2;SDS_P1;SDS_P2;PMS_P1;PMS_P2;Temp;Humidity;BMP_temperature;BMP_pressure;BME280_temperature;BME280_humidity;BME280_pressure;Samples;Min_cycle;Max_cycle;Signal;HPM_P1;HPM_P2
2024/04/19 00:02:18;;;;;;;7.35;1.17;;;;;;;9.91;100.00;101076.59;4673098;30;20052;-93
2024/04/19 00:04:44;;;;;;;10.38;1.08;;;;;;;9.87;100.00;101080.47;4698929;30;20055;-93
2024/04/19 00:07:10;;;;;;;6.05;1.00;;;;;;;9.89;100.00;101081.16;4697917;30;20107;-95
2024/04/19 00:09:44;;;;;;;7.65;0.90;;;;;;;9.92;100.00;101083.56;4713987;30;20045;-94
2024/04/19 00:12:10;;;;;;;5.45;0.90;;;;;;;9.92;100.00;101069.53;4707226;30;20052;-93
2024/04/19 00:14:36;;;;;;;7.43;1.30;;;;;;;9.95;100.00;101071.06;4701327;30;20068;-94
2024/04/19 00:17:03;;;;;;;3.00;0.80;;;;;;;9.94;100.00;101075.50;4697223;30;20539;-94
2024/04/19 00:19:29;;;;;;;3.22;1.10;;;;;;;10.01;100.00;101075.84;4724951;30;20059;-94
2024/04/19 00:21:55;;;;;;;4.95;0.68;;;;;;;9.98;100.00;101076.09;4706969;30;20041;-93
2024/04/19 00:24:20;;;;;;;4.15;0.88;;;;;;;9.99;100.00;101077.78;4685614;30;20120;-93
2024/04/19 00:26:46;;;;;;;5.00;0.50;;;;;;;9.99;100.00;101080.41;4697512;30;20052;-94
2024/04/19 00:29:12;;;;;;;2.78;1.00;;;;;;;9.97;100.00;101071.78;4697218;30;20071;-94
2024/04/19 00:31:38;;;;;;;8.13;0.70;;;;;;;9.97;100.00;101083.19;4704672;30;20410;-92
2024/04/19 00:34:03;;;;;;;3.70;0.70;;;;;;;9.98;100.00;101073.47;4706860;30;20048;-94
2024/04/19 00:36:29;;;;;;;4.88;0.70;;;;;;;9.99;100.00;101086.53;4709605;30;20129;-94
2024/04/19 00:38:55;;;;;;;3.85;0.73;;;;;;;10.00;100.00;101075.00;4708635;30;20671;-93
2024/04/19 00:41:20;;;;;;;7.38;0.93;;;;;;;10.00;100.00;101085.56;4699783;30;20131;-94
2024/04/19 00:43:47;;;;;;;5.70;0.68;;;;;;;10.00;100.00;101075.00;4707348;30;20045;-94
2024/04/19 00:46:13;;;;;;;3.25;0.57;;;;;;;10.02;100.00;101074.88;4701822;30;20040;-93
2024/04/19 00:48:40;;;;;;;6.28;1.00;;;;;;;10.02;100.00;101067.81;4698464;30;20549;-94
2024/04/19 00:51:07;;;;;;;6.47;0.68;;;;;;;10.04;100.00;101071.16;4696185;30;21088;-94
2024/04/19 00:53:34;;;;;;;6.53;0.60;;;;;;;10.09;100.00;101075.22;4697075;30;20068;-94
2024/04/19 00:56:19;;;;;;;3.15;0.50;;;;;;;10.07;100.00;101070.06;4711015;30;20068;-93
2024/04/19 00:58:46;;;;;;;3.40;1.52;;;;;;;10.07;100.00;101063.94;4700226;30;20363;-94
2024/04/19 01:01:12;;;;;;;4.72;1.38;;;;;;;10.04;100.00;101063.25;4697891;30;20048;-93
2024/04/19 01:03:38;;;;;;;5.18;0.65;;;;;;;10.05;100.00;101064.91;4713084;30;20049;-94
2024/04/19 01:06:04;;;;;;;4.40;0.57;;;;;;;10.04;100.00;101065.03;4709736;30;20127;-94
2024/04/19 01:08:30;;;;;;;4.00;0.50;;;;;;;10.04;100.00;101065.88;4704883;30;20152;-94
2024/04/19 01:10:57;;;;;;;7.70;0.73;;;;;;;10.01;100.00;101067.94;4685830;30;20041;-94
2024/04/19 01:13:23;;;;;;;4.93;0.60;;;;;;;9.97;100.00;101061.22;4701760;30;20098;-93
2024/04/19 01:15:49;;;;;;;5.18;0.57;;;;;;;9.98;100.00;101057.63;4700998;30;20568;-93
2024/04/19 01:18:15;;;;;;;7.05;0.77;;;;;;;9.97;100.00;101058.59;4699234;30;20049;-93
2024/04/19 01:20:42;;;;;;;5.22;0.70;;;;;;;9.97;100.00;101064.69;4716950;30;20051;-93
2024/04/19 01:23:09;;;;;;;7.30;0.50;;;;;;;9.94;100.00;101059.66;4700698;30;20044;-92
2024/04/19 01:25:39;;;;;;;4.47;1.00;;;;;;;9.98;100.00;101050.53;4700752;30;20041;-92
2024/04/19 01:28:07;;;;;;;6.68;0.60;;;;;;;9.95;100.00;101055.22;4704839;30;20044;-93
2024/04/19 01:30:33;;;;;;;3.88;0.82;;;;;;;9.92;100.00;101053.69;4718313;30;20270;-92
2024/04/19 01:32:59;;;;;;;3.28;0.68;;;;;;;9.86;100.00;101049.72;4705420;30;20084;-92
2024/04/19 01:35:25;;;;;;;4.35;0.55;;;;;;;9.85;100.00;101049.84;4696059;30;20531;-95
2024/04/19 01:37:50;;;;;;;3.45;0.50;;;;;;;9.88;100.00;101060.16;4701932;30;20078;-93
2024/04/19 01:40:16;;;;;;;3.85;0.57;;;;;;;9.92;100.00;101053.69;4699955;30;20099;-93
2024/04/19 01:42:42;;;;;;;4.50;0.70;;;;;;;9.95;100.00;101052.59;4699246;30;20078;-94
2024/04/19 01:45:08;;;;;;;4.05;0.65;;;;;;;9.95;100.00;101048.16;4724105;30;20064;-94
2024/04/19 01:47:33;;;;;;;3.65;0.60;;;;;;;9.90;100.00;101042.41;4711497;30;20047;-95
2024/04/19 01:50:00;;;;;;;2.90;0.40;;;;;;;9.90;100.00;101039.75;4717989;30;20036;-93
2024/04/19 01:52:26;;;;;;;4.68;0.40;;;;;;;9.90;100.00;101042.41;4705518;30;20072;-94
2024/04/19 01:54:52;;;;;;;3.15;0.77;;;;;;;9.90;100.00;101037.13;4717394;30;20085;-92
2024/04/19 01:57:18;;;;;;;3.28;0.20;;;;;;;9.91;100.00;101036.16;4704954;30;20683;-95
2024/04/19 01:59:43;;;;;;;6.70;0.93;;;;;;;9.91;100.00;101039.63;4702891;30;20079;-93
2024/04/19 02:02:09;;;;;;;4.05;0.98;;;;;;;9.95;100.00;101037.59;4713489;30;20376;-93
2024/04/19 02:04:35;;;;;;;4.43;0.55;;;;;;;9.97;100.00;101030.34;4723781;30;20510;-94
2024/04/19 02:07:01;;;;;;;5.20;0.50;;;;;;;10.01;100.00;101033.59;4712908;30;20047;-94
2024/04/19 02:09:35;;;;;;;4.97;0.45;;;;;;;10.01;100.00;101037.09;4706093;30;20040;-95
2024/04/19 02:12:02;;;;;;;1.98;0.25;;;;;;;9.97;100.00;101033.00;4720723;30;20036;-93
2024/04/19 02:14:30;;;;;;;3.35;0.47;;;;;;;9.94;100.00;101030.63;4704789;30;20047;-93
2024/04/19 02:16:57;;;;;;;2.58;0.38;;;;;;;9.93;100.00;101029.78;4697132;30;20049;-93
2024/04/19 02:19:24;;;;;;;1.98;0.20;;;;;;;9.96;100.00;101038.41;4724353;30;20041;-93
2024/04/19 02:21:50;;;;;;;0.95;0.20;;;;;;;9.96;100.00;101041.06;4690417;30;20044;-93
2024/04/19 02:24:16;;;;;;;3.88;0.38;;;;;;;9.95;100.00;101026.19;4723843;30;20065;-93
2024/04/19 02:26:41;;;;;;;2.28;0.25;;;;;;;9.93;100.00;101034.22;4704020;30;20056;-92
2024/04/19 02:31:52;;;;;;;3.03;0.30;;;;;;;9.88;100.00;101039.03;4725355;30;20048;-93
2024/04/19 02:34:18;;;;;;;1.45;0.20;;;;;;;9.87;100.00;101032.09;4701942;30;20487;-92
2024/04/19 02:36:44;;;;;;;3.38;0.20;;;;;;;9.86;100.00;101027.78;4717626;30;20522;-94
2024/04/19 02:39:11;;;;;;;4.20;0.30;;;;;;;9.88;100.00;101037.25;4721914;30;20766;-92
2024/04/19 02:41:38;;;;;;;1.50;0.40;;;;;;;9.86;100.00;101030.44;4711794;30;20105;-94
2024/04/19 02:44:04;;;;;;;0.77;0.10;;;;;;;9.88;100.00;101031.13;4718154;30;20056;-93
2024/04/19 02:46:30;;;;;;;4.40;0.38;;;;;;;9.85;100.00;101036.66;4701466;30;20044;-93
2024/04/19 02:48:56;;;;;;;3.63;0.30;;;;;;;9.91;100.00;101034.34;4719141;30;20829;-93
2024/04/19 02:51:21;;;;;;;4.13;0.30;;;;;;;9.95;100.00;101037.59;4705199;30;20074;-93
2024/04/19 02:53:47;;;;;;;3.13;0.30;;;;;;;9.91;100.00;101038.78;4679649;30;20040;-92
2024/04/19 02:56:13;;;;;;;1.33;0.17;;;;;;;9.96;100.00;101043.69;4717438;30;20558;-92
2024/04/19 02:58:40;;;;;;;8.98;0.30;;;;;;;9.96;100.00;101044.53;4726893;30;20086;-92
2024/04/19 03:01:05;;;;;;;2.35;0.13;;;;;;;9.94;100.00;101038.53;4700598;30;20041;-92
2024/04/19 03:03:31;;;;;;;1.08;0.32;;;;;;;9.91;100.00;101039.63;4709460;30;20076;-92
2024/04/19 03:05:57;;;;;;;3.30;0.40;;;;;;;9.91;100.00;101028.22;4714294;30;20124;-93
2024/04/19 03:08:25;;;;;;;2.65;0.20;;;;;;;9.92;100.00;101027.28;4698558;30;20045;-92
2024/04/19 03:10:51;;;;;;;2.03;0.30;;;;;;;9.90;100.00;101022.13;4727173;30;20040;-93
2024/04/19 03:13:17;;;;;;;1.95;0.25;;;;;;;9.88;100.00;101023.19;4702049;30;20491;-92
2024/04/19 03:15:43;;;;;;;3.15;0.30;;;;;;;9.91;100.00;101025.59;4718241;30;20046;-93
2024/04/19 03:18:29;;;;;;;2.55;0.20;;;;;;;9.91;100.00;101020.31;4707106;30;20048;-93
2024/04/19 03:21:02;;;;;;;1.85;0.30;;;;;;;9.97;100.00;101019.78;4705329;30;20060;-92
2024/04/19 03:23:29;;;;;;;1.23;0.20;;;;;;;9.96;100.00;101025.19;4719160;30;20624;-93
2024/04/19 03:26:02;;;;;;;5.55;0.50;;;;;;;9.99;100.00;101027.59;4704786;30;20037;-93
2024/04/19 03:28:28;;;;;;;1.65;0.25;;;;;;;9.94;100.00;101027.97;4733752;30;20036;-93
2024/04/19 03:30:54;;;;;;;2.38;0.10;;;;;;;9.92;100.00;101025.47;4716922;30;20067;-94
2024/04/19 03:33:19;;;;;;;2.60;0.20;;;;;;;9.90;100.00;101019.47;4704194;30;20064;-93
2024/04/19 03:35:45;;;;;;;1.05;0.20;;;;;;;9.92;100.00;101029.91;4704457;30;20048;-93
2024/04/19 03:38:14;;;;;;;0.10;0.00;;;;;;;9.89;100.00;101035.47;4704435;30;20064;-92
2024/04/19 03:40:58;;;;;;;1.23;0.10;;;;;;;9.87;100.00;101040.88;4732657;30;20051;-93
2024/04/19 03:43:31;;;;;;;1.17;0.10;;;;;;;9.83;100.00;101034.13;4703528;30;20040;-93
2024/04/19 03:45:59;;;;;;;0.17;0.10;;;;;;;9.84;100.00;101038.47;4703618;30;20541;-93
2024/04/19 03:48:25;;;;;;;0.68;0.10;;;;;;;9.80;100.00;101029.09;4714934;30;20068;-94
2024/04/19 03:50:50;;;;;;;1.95;0.20;;;;;;;9.80;100.00;101027.31;4701794;30;20080;-93
2024/04/19 03:53:16;;;;;;;0.20;0.10;;;;;;;9.75;100.00;101012.78;4704802;30;20399;-93
2024/04/19 03:55:42;;;;;;;0.68;0.20;;;;;;;9.79;100.00;101027.44;4704484;30;20514;-92
2024/04/19 03:58:09;;;;;;;1.48;0.30;;;;;;;9.81;100.00;101028.13;4719451;30;20045;-92
2024/04/19 04:00:41;;;;;;;1.10;0.25;;;;;;;9.82;100.00;101023.69;4710370;30;20051;-94
2024/04/19 04:03:08;;;;;;;1.45;0.28;;;;;;;9.75;100.00;101028.63;4703220;30;20037;-92
2024/04/19 04:05:39;;;;;;;4.05;0.20;;;;;;;9.74;100.00;101033.09;4706803;30;20139;-93
2024/04/19 04:08:05;;;;;;;1.80;0.17;;;;;;;9.70;100.00;101034.28;4717858;30;20079;-93
2024/04/19 04:10:31;;;;;;;0.93;0.20;;;;;;;9.72;100.00;101036.78;4717579;30;20075;-94
2024/04/19 04:12:56;;;;;;;1.13;0.10;;;;;;;9.70;100.00;101031.63;4702896;30;20065;-94
2024/04/19 04:15:22;;;;;;;0.90;0.20;;;;;;;9.68;100.00;101020.38;4702994;30;20172;-93
2024/04/19 04:17:48;;;;;;;3.35;0.75;;;;;;;9.70;100.00;101021.09;4724272;30;20546;-96
2024/04/19 04:20:14;;;;;;;1.08;0.20;;;;;;;9.73;100.00;101017.38;4704277;30;20518;-93
2024/04/19 04:22:39;;;;;;;0.88;0.30;;;;;;;9.73;100.00;101014.75;4709020;30;20060;-92
2024/04/19 04:25:05;;;;;;;1.55;0.20;;;;;;;9.72;100.00;101011.25;4701883;30;20485;-92
2024/04/19 04:27:31;;;;;;;0.95;0.40;;;;;;;9.75;100.00;101015.44;4693119;30;20056;-93
2024/04/19 04:29:57;;;;;;;1.02;0.20;;;;;;;9.73;100.00;101012.91;4707042;30;20075;-93
2024/04/19 04:32:22;;;;;;;1.10;0.20;;;;;;;9.79;100.00;101016.88;4703697;30;20110;-94
2024/04/19 04:34:48;;;;;;;2.15;0.47;;;;;;;9.80;100.00;101015.91;4700749;30;20098;-93
2024/04/19 04:37:14;;;;;;;3.53;0.30;;;;;;;9.80;100.00;101019.38;4703117;30;20044;-93
2024/04/19 04:39:40;;;;;;;6.32;0.30;;;;;;;9.80;100.00;101018.53;4702712;30;20052;-93
2024/04/19 04:42:06;;;;;;;3.80;0.38;;;;;;;9.78;100.00;101008.09;4717265;30;20045;-93
2024/04/19 04:44:34;;;;;;;0.82;0.15;;;;;;;9.85;100.00;101015.53;4705719;30;20132;-92
2024/04/19 04:47:00;;;;;;;1.10;0.20;;;;;;;9.84;100.00;101013.84;4697435;30;20033;-93
2024/04/19 04:49:26;;;;;;;0.90;0.10;;;;;;;9.85;100.00;101019.00;4711286;30;20037;-93
2024/04/19 04:51:52;;;;;;;2.85;0.35;;;;;;;9.88;100.00;101023.19;4707959;30;20072;-93
2024/04/19 04:54:18;;;;;;;2.65;0.17;;;;;;;9.89;100.00;101024.91;4687979;30;20059;-92
2024/04/19 04:56:43;;;;;;;2.00;0.20;;;;;;;9.88;100.00;101025.84;4697517;30;20113;-93
2024/04/19 04:59:09;;;;;;;2.00;0.40;;;;;;;9.84;100.00;101019.13;4718832;30;20052;-93
2024/04/19 05:01:35;;;;;;;0.98;0.20;;;;;;;9.79;100.00;101017.69;4691945;30;20495;-93
2024/04/19 05:04:01;;;;;;;1.33;0.20;;;;;;;9.79;100.00;101027.44;4716291;30;20065;-92
2024/04/19 05:06:26;;;;;;;2.40;0.30;;;;;;;9.80;100.00;101022.03;4705947;30;20056;-93
2024/04/19 05:08:52;;;;;;;3.40;0.60;;;;;;;9.79;100.00;101022.97;4719554;30;20531;-92
2024/04/19 05:11:18;;;;;;;0.52;0.20;;;;;;;9.83;100.00;101025.38;4705988;30;20044;-93
2024/04/19 05:13:43;;;;;;;0.40;0.35;;;;;;;9.84;100.00;101030.56;4705610;30;20040;-93
2024/04/19 05:16:09;;;;;;;1.25;0.20;;;;;;;9.83;100.00;101030.66;4706757;30;20045;-93
2024/04/19 05:18:35;;;;;;;0.52;0.10;;;;;;;9.81;100.00;101022.84;4720893;30;20036;-92
2024/04/19 05:21:01;;;;;;;0.77;0.10;;;;;;;9.78;100.00;101023.94;4704830;30;20037;-92
2024/04/19 05:23:26;;;;;;;0.10;0.10;;;;;;;9.78;100.00;101021.31;4719667;30;20037;-92
2024/04/19 05:25:52;;;;;;;1.17;0.20;;;;;;;9.83;100.00;101025.38;4702384;30;20041;-93
2024/04/19 05:28:19;;;;;;;0.80;0.20;;;;;;;9.83;100.00;101028.84;4728533;30;20067;-94
2024/04/19 05:30:45;;;;;;;1.05;0.20;;;;;;;9.78;100.00;101020.47;4690152;30;20047;-94
2024/04/19 05:33:11;;;;;;;0.28;0.10;;;;;;;9.81;100.00;101025.50;4702146;30;20036;-93
2024/04/19 05:35:37;;;;;;;0.77;0.20;;;;;;;9.83;100.00;101025.38;4704315;30;20123;-92
2024/04/19 05:38:02;;;;;;;1.30;0.15;;;;;;;9.83;100.00;101025.38;4685492;30;20052;-93
2024/04/19 05:40:28;;;;;;;1.05;0.20;;;;;;;9.88;100.00;101031.13;4690166;30;20527;-94
2024/04/19 05:42:54;;;;;;;0.20;0.10;;;;;;;9.82;100.00;101026.34;4696491;30;20502;-92
2024/04/19 05:45:20;;;;;;;1.48;0.32;;;;;;;9.80;100.00;101029.09;4718995;30;20044;-92
2024/04/19 05:47:46;;;;;;;2.22;0.30;;;;;;;9.81;100.00;101028.13;4724346;30;20526;-95
2024/04/19 05:50:12;;;;;;;0.75;0.22;;;;;;;9.82;100.00;101026.34;4702123;30;20040;-93
2024/04/19 05:52:39;;;;;;;1.75;0.30;;;;;;;9.83;100.00;101023.56;4701269;30;20060;-92
2024/04/19 05:55:06;;;;;;;1.73;0.40;;;;;;;9.87;100.00;101032.09;4702125;30;20041;-93
2024/04/19 05:57:32;;;;;;;0.52;0.38;;;;;;;9.90;100.00;101031.84;4697959;30;20222;-91
2024/04/19 05:59:58;;;;;;;1.20;0.60;;;;;;;9.86;100.00;101033.88;4698884;30;20219;-93
2024/04/19 06:02:23;;;;;;;1.67;0.20;;;;;;;9.86;100.00;101027.78;4698432;30;20139;-93
2024/04/19 06:04:49;;;;;;;2.65;0.50;;;;;;;9.83;100.00;101022.72;4701465;30;20432;-92
2024/04/19 06:07:16;;;;;;;0.68;0.25;;;;;;;9.79;100.00;101027.44;4716706;30;20269;-93
2024/04/19 06:09:42;;;;;;;4.28;0.40;;;;;;;9.77;100.00;101027.56;4688272;30;20519;-93
2024/04/19 06:12:08;;;;;;;1.90;0.30;;;;;;;9.79;100.00;101036.16;4714374;30;20136;-91
2024/04/19 06:14:34;;;;;;;1.65;0.30;;;;;;;9.82;100.00;101028.97;4706376;30;20045;-92
2024/04/19 06:17:01;;;;;;;1.00;0.20;;;;;;;9.85;100.00;101036.66;4699237;30;20066;-92
2024/04/19 06:19:27;;;;;;;1.45;0.20;;;;;;;9.84;100.00;101032.34;4710806;30;20045;-92
2024/04/19 06:21:53;;;;;;;0.50;0.10;;;;;;;9.84;100.00;101042.91;4696177;30;20487;-91
2024/04/19 06:24:19;;;;;;;2.17;0.38;;;;;;;9.86;100.00;101033.88;4710637;30;20081;-93
2024/04/19 06:26:45;;;;;;;1.55;0.20;;;;;;;9.86;100.00;101031.25;4698046;30;20052;-93
2024/04/19 06:29:13;;;;;;;0.65;0.30;;;;;;;9.89;100.00;101025.72;4695821;30;20140;-92
2024/04/19 06:31:39;;;;;;;4.82;0.20;;;;;;;9.83;100.00;101025.38;4701147;30;20469;-96
2024/04/19 06:34:05;;;;;;;0.88;0.30;;;;;;;9.84;100.00;101027.91;4705123;30;20045;-91
2024/04/19 06:36:30;;;;;;;1.30;0.30;;;;;;;9.83;100.00;101030.66;4695561;30;20526;-93
2024/04/19 06:39:00;;;;;;;3.92;0.40;;;;;;;9.83;100.00;101030.66;4700855;30;20049;-92
2024/04/19 06:41:26;;;;;;;2.33;0.20;;;;;;;9.82;100.00;101034.25;4698793;30;20044;-92
2024/04/19 06:43:57;;;;;;;1.95;0.32;;;;;;;9.88;100.00;101033.75;4715653;30;20147;-92
2024/04/19 06:46:25;;;;;;;0.17;0.10;;;;;;;9.84;100.00;101041.13;4701738;30;20048;-92
2024/04/19 06:48:53;;;;;;;1.50;0.38;;;;;;;9.84;100.00;101043.75;4701886;30;20040;-91
2024/04/19 06:51:19;;;;;;;2.08;0.30;;;;;;;9.80;100.00;101042.31;4702515;30;20045;-91
2024/04/19 06:53:45;;;;;;;1.58;0.20;;;;;;;9.83;100.00;101038.56;4708401;30;20056;-91
2024/04/19 06:56:10;;;;;;;0.43;0.10;;;;;;;9.86;100.00;101039.16;4698883;30;20498;-91
2024/04/19 06:58:36;;;;;;;2.45;0.30;;;;;;;9.88;100.00;101039.88;4699055;30;20044;-91
2024/04/19 07:01:08;;;;;;;1.35;0.73;;;;;;;9.88;100.00;101036.41;4712841;30;20056;-93
2024/04/19 07:03:34;;;;;;;1.30;0.13;;;;;;;9.88;100.00;101045.16;4712752;30;20053;-91
2024/04/19 07:06:13;;;;;;;1.13;0.30;;;;;;;9.90;100.00;101037.13;4712575;30;20381;-93
2024/04/19 07:08:40;;;;;;;1.75;0.25;;;;;;;9.93;100.00;101055.34;4700359;30;20048;-95
2024/04/19 07:11:06;;;;;;;2.28;0.40;;;;;;;9.89;100.00;101046.00;4703815;30;20049;-94
2024/04/19 07:13:33;;;;;;;2.38;0.22;;;;;;;9.92;100.00;101045.75;4703630;30;20139;-92
2024/04/19 07:15:59;;;;;;;1.05;0.17;;;;;;;9.93;100.00;101058.00;4701456;30;20345;-91
2024/04/19 07:18:25;;;;;;;1.40;0.30;;;;;;;9.90;100.00;101050.31;4701633;30;20048;-92
2024/04/19 07:20:54;;;;;;;1.50;0.20;;;;;;;9.94;100.00;101051.75;4700709;30;20096;-94
2024/04/19 07:23:21;;;;;;;1.17;0.20;;;;;;;9.90;100.00;101048.53;4696724;30;20170;-95
2024/04/19 07:25:48;;;;;;;5.78;0.30;;;;;;;9.92;100.00;101066.88;4709497;30;20040;-91
2024/04/19 07:28:14;;;;;;;1.38;0.30;;;;;;;9.93;100.00;101069.41;4714242;30;20037;-92
2024/04/19 07:30:40;;;;;;;0.95;0.30;;;;;;;9.97;100.00;101058.59;4715828;30;20049;-93
2024/04/19 07:33:05;;;;;;;2.33;0.40;;;;;;;9.96;100.00;101064.81;4700541;30;20044;-91
2024/04/19 07:35:31;;;;;;;0.75;0.30;;;;;;;9.97;100.00;101077.06;4715894;30;20453;-96
2024/04/19 07:37:57;;;;;;;3.80;0.60;;;;;;;9.95;100.00;101066.63;4700819;30;20136;-95
2024/04/19 07:40:25;;;;;;;9.77;0.47;;;;;;;9.99;100.00;101068.06;4704115;30;20181;-94
2024/04/19 07:42:51;;;;;;;6.70;0.50;;;;;;;9.99;100.00;101068.06;4713897;30;20040;-96
2024/04/19 07:45:20;;;;;;;2.53;0.70;;;;;;;9.91;100.00;101062.56;4700449;30;20041;-94
2024/04/19 07:47:46;;;;;;;2.63;0.30;;;;;;;9.95;100.00;101077.19;4705662;30;20052;-93
2024/04/19 07:50:12;;;;;;;2.13;0.40;;;;;;;9.92;100.00;101072.16;4687575;30;20071;-92
2024/04/19 07:52:38;;;;;;;3.10;0.30;;;;;;;9.98;100.00;101068.19;4715949;30;20149;-93
2024/04/19 07:55:04;;;;;;;1.65;0.30;;;;;;;9.99;100.00;101075.97;4701351;30;20033;-92
2024/04/19 07:57:30;;;;;;;2.58;0.30;;;;;;;9.98;100.00;101076.94;4715320;30;20040;-91
2024/04/19 07:59:55;;;;;;;4.05;0.40;;;;;;;10.00;100.00;101076.81;4704842;30;20044;-93
2024/04/19 08:02:21;;;;;;;3.28;0.40;;;;;;;10.01;100.00;101076.69;4699812;30;20044;-91
2024/04/19 08:04:47;;;;;;;4.03;0.50;;;;;;;10.02;100.00;101082.81;4699998;30;20147;-93
2024/04/19 08:07:13;;;;;;;1.83;0.47;;;;;;;10.00;100.00;101082.09;4699594;30;20040;-94
2024/04/19 08:09:38;;;;;;;3.25;0.40;;;;;;;10.01;100.00;101083.78;4700817;30;20110;-94
2024/04/19 08:12:06;;;;;;;5.45;0.57;;;;;;;10.07;100.00;101093.00;4721418;30;20040;-94
2024/04/19 08:14:33;;;;;;;1.73;0.40;;;;;;;10.10;100.00;101092.75;4699553;30;20044;-93
2024/04/19 08:16:59;;;;;;;2.17;0.40;;;;;;;10.07;100.00;101085.91;4708036;30;20337;-93
2024/04/19 08:19:24;;;;;;;3.17;0.40;;;;;;;10.13;100.00;101098.63;4699469;30;20037;-93
2024/04/19 08:21:50;;;;;;;1.23;0.30;;;;;;;10.21;100.00;101092.72;4700618;30;20612;-92
2024/04/19 08:24:16;;;;;;;1.73;0.47;;;;;;;10.23;100.00;101090.78;4700779;30;20044;-93
2024/04/19 08:26:41;;;;;;;2.70;0.30;;;;;;;10.27;100.00;101099.31;4713000;30;20044;-93
2024/04/19 08:29:07;;;;;;;3.03;0.70;;;;;;;10.39;100.00;101090.38;4698772;30;20040;-93
2024/04/19 08:31:34;;;;;;;0.65;0.20;;;;;;;10.55;100.00;101081.19;4685632;30;20056;-94
2024/04/19 08:34:00;;;;;;;1.17;0.22;;;;;;;10.63;100.00;101093.75;4711103;30;20041;-93
2024/04/19 08:36:26;;;;;;;0.70;0.20;;;;;;;10.67;100.00;101087.25;4697015;30;20116;-95
2024/04/19 08:38:51;;;;;;;2.47;0.17;;;;;;;10.70;100.00;101091.44;4695677;30;20048;-91
2024/04/19 08:41:19;;;;;;;0.85;0.22;;;;;;;10.69;100.00;101089.78;4728749;30;20067;-91
2024/04/19 08:43:45;;;;;;;1.48;0.20;;;;;;;10.73;100.00;101088.53;4696183;30;20445;-94
2024/04/19 08:46:11;;;;;;;0.45;0.20;;;;;;;10.76;100.00;101105.00;4698933;30;20037;-95
2024/04/19 08:48:40;;;;;;;1.38;0.20;;;;;;;10.75;100.00;101105.13;4699423;30;20078;-93
2024/04/19 08:51:07;;;;;;;1.60;0.20;;;;;;;10.79;100.00;101099.44;4698993;30;20036;-95
2024/04/19 08:53:33;;;;;;;3.13;0.40;;;;;;;10.74;100.00;101108.72;4714280;30;20130;-92
2024/04/19 08:56:00;;;;;;;1.30;0.40;;;;;;;10.88;100.00;101118.97;4711466;30;20045;-92
2024/04/19 08:58:27;;;;;;;2.15;0.20;;;;;;;10.94;100.00;101108.84;4697260;30;20499;-94
2024/04/19 09:00:53;;;;;;;2.10;0.20;;;;;;;10.87;100.00;101112.03;4717079;30;20036;-96
2024/04/19 09:03:19;;;;;;;3.47;0.20;;;;;;;10.90;100.00;101102.97;4707343;30;20090;-92
2024/04/19 09:05:45;;;;;;;3.15;0.38;;;;;;;10.95;100.00;101105.22;4698424;30;20395;-92
2024/04/19 09:08:11;;;;;;;0.40;0.20;;;;;;;10.98;100.00;101104.97;4713710;30;20051;-93
2024/04/19 09:10:37;;;;;;;1.48;0.28;;;;;;;11.09;100.00;101111.97;4713384;30;20048;-93
2024/04/19 09:13:03;;;;;;;2.03;0.20;;;;;;;11.08;100.00;101120.91;4699760;30;20106;-95
2024/04/19 09:15:29;;;;;;;3.53;0.20;;;;;;;11.00;100.00;101124.19;4700547;30;20067;-95
2024/04/19 09:17:55;;;;;;;0.40;0.20;;;;;;;10.96;100.00;101120.16;4699360;30;20048;-93
2024/04/19 09:20:22;;;;;;;2.08;0.80;;;;;;;10.99;100.00;101135.75;4699161;30;20045;-95
2024/04/19 09:22:49;;;;;;;2.15;0.50;;;;;;;10.95;100.00;101135.16;4699635;30;20041;-95
2024/04/19 09:25:17;;;;;;;1.67;0.30;;;;;;;10.95;100.00;101134.31;4712319;30;20161;-93
2024/04/19 09:27:44;;;;;;;7.53;4.70;;;;;;;11.02;100.00;101138.13;4719728;30;20052;-92
2024/04/19 09:30:13;;;;;;;0.52;0.20;;;;;;;11.12;100.00;101140.81;4700193;30;20479;-96
2024/04/19 09:32:39;;;;;;;2.15;0.60;;;;;;;11.02;100.00;101133.66;4713472;30;20487;-94
2024/04/19 09:35:05;;;;;;;2.42;0.60;;;;;;;11.09;100.00;101149.88;4713344;30;20067;-92
2024/04/19 09:37:31;;;;;;;2.10;0.20;;;;;;;11.10;100.00;101143.59;4699745;30;20044;-94
2024/04/19 09:39:57;;;;;;;0.30;0.28;;;;;;;11.13;100.00;101139.88;4702046;30;20135;-91
2024/04/19 09:42:24;;;;;;;0.20;0.20;;;;;;;11.16;100.00;101144.91;4702411;30;20051;-94
2024/04/19 09:44:51;;;;;;;0.10;0.10;;;;;;;11.16;100.00;101150.19;4714678;30;20040;-93
2024/04/19 09:47:18;;;;;;;1.95;0.35;;;;;;;11.15;100.00;101152.00;4701909;30;20054;-92
2024/04/19 09:49:45;;;;;;;0.20;0.20;;;;;;;11.25;100.00;101143.25;4715408;30;20049;-92
2024/04/19 09:52:22;;;;;;;1.52;0.20;;;;;;;11.35;100.00;101140.66;4701744;30;20131;-93
2024/04/19 09:55:21;;;;;;;0.30;0.17;;;;;;;11.39;100.00;101144.72;4714148;30;20056;-94
2024/04/19 09:57:48;;;;;;;0.10;0.10;;;;;;;11.37;100.00;101142.22;4711255;30;20056;-92
2024/04/19 10:00:17;;;;;;;0.73;0.10;;;;;;;11.43;100.00;101143.50;4713180;30;20048;-92
2024/04/19 10:02:44;;;;;;;0.80;0.22;;;;;;;11.55;100.00;101154.81;4693347;30;20040;-95
2024/04/19 10:05:11;;;;;;;0.75;0.20;;;;;;;11.58;100.00;101143.16;4701805;30;20056;-91
2024/04/19 10:07:37;;;;;;;0.93;0.20;;;;;;;11.68;100.00;101138.72;4694550;30;20522;-91
2024/04/19 10:10:04;;;;;;;1.65;0.10;;;;;;;11.82;100.00;101145.44;4722198;30;20033;-93
2024/04/19 10:12:32;;;;;;;0.30;0.10;;;;;;;11.98;100.00;101144.91;4686838;30;20518;-92
2024/04/19 10:14:58;;;;;;;0.28;0.13;;;;;;;12.04;100.00;101138.22;4695569;30;20040;-92
2024/04/19 10:17:24;;;;;;;0.20;0.10;;;;;;;12.06;100.00;101146.03;4715489;30;20053;-92
2024/04/19 10:19:54;;;;;;;0.30;0.20;;;;;;;12.18;100.00;101139.69;4698970;30;20087;-92
2024/04/19 10:22:22;;;;;;;0.20;0.20;;;;;;;12.09;100.00;101146.66;4701558;30;20082;-94
2024/04/19 10:24:57;;;;;;;0.40;0.20;;;;;;;12.15;100.00;101140.78;4702218;30;20515;-92
2024/04/19 10:27:27;;;;;;;2.60;0.30;;;;;;;12.21;100.00;101146.53;4690132;30;20045;-94
2024/04/19 10:29:52;;;;;;;0.80;0.22;;;;;;;12.20;100.00;101140.38;4715135;30;20075;-92
2024/04/19 10:32:18;;;;;;;0.73;0.20;;;;;;;12.19;100.00;101137.88;4701035;30;20052;-91
2024/04/19 10:34:44;;;;;;;1.65;0.20;;;;;;;12.26;100.00;101137.19;4700503;30;20040;-91
2024/04/19 10:37:12;;;;;;;0.52;0.20;;;;;;;12.33;100.00;101136.63;4701053;30;20040;-89
2024/04/19 10:39:37;;;;;;;0.20;0.10;;;;;;;12.38;100.00;101137.88;4701277;30;20462;-94
2024/04/19 10:42:03;;;;;;;1.45;0.30;;;;;;;12.40;100.00;101135.94;4730201;30;20048;-92
2024/04/19 10:44:31;;;;;;;0.93;0.20;;;;;;;12.49;100.00;101141.38;4685205;30;20118;-93
2024/04/19 10:46:57;;;;;;;0.47;0.15;;;;;;;12.49;100.00;101149.31;4700687;30;20080;-93
2024/04/19 10:49:24;;;;;;;2.38;0.57;;;;;;;12.45;100.00;101142.63;4701763;30;20044;-92
2024/04/19 10:51:51;;;;;;;1.15;0.38;;;;;;;12.40;100.00;101145.72;4699881;30;20032;-93
2024/04/19 10:54:17;;;;;;;1.30;0.55;;;;;;;12.38;100.00;101156.44;4716593;30;20048;-93
2024/04/19 10:56:43;;;;;;;1.63;0.15;;;;;;;12.43;100.00;101157.84;4704005;30;20032;-92
2024/04/19 10:59:09;;;;;;;1.27;0.20;;;;;;;12.47;100.00;101156.59;4696321;30;20462;-92
2024/04/19 11:01:38;;;;;;;0.40;0.15;;;;;;;12.56;100.00;101165.53;4709928;30;20047;-92
2024/04/19 11:04:04;;;;;;;0.85;0.20;;;;;;;12.61;100.00;101164.13;4689145;30;20056;-93
2024/04/19 11:06:30;;;;;;;1.55;0.15;;;;;;;12.58;100.00;101163.56;4687258;30;20040;-92
2024/04/19 11:08:56;;;;;;;3.40;0.20;;;;;;;12.58;100.00;101167.03;4712788;30;20490;-92
2024/04/19 11:11:22;;;;;;;0.30;0.20;;;;;;;12.50;100.00;101166.94;4710570;30;20044;-91
2024/04/19 11:13:48;;;;;;;0.10;0.10;;;;;;;12.39;100.00;101167.91;4701759;30;20495;-89
2024/04/19 11:16:14;;;;;;;0.82;0.63;;;;;;;12.27;100.00;101160.06;4703793;30;20044;-93
2024/04/19 11:18:39;;;;;;;4.38;2.17;;;;;;;12.28;100.00;101161.75;4702147;30;20044;-91
2024/04/19 11:21:06;;;;;;;1.38;0.90;;;;;;;12.33;100.00;101171.94;4687221;30;20044;-94
2024/04/19 11:23:31;;;;;;;2.10;1.20;;;;;;;12.34;100.00;101178.06;4701325;30;20106;-95